sensor_id;sensor_type;location;lat;lon;timestamp;temperature;humidity
2611;DHT22;5612;51.134;17.058;2023-02-28T00:00:22;2.00;99.90
2611;DHT22;5612;51.134;17.058;2023-02-28T00:02:53;2.00;99.90
2611;DHT22;5612;51.134;17.058;2023-02-28T00:05:24;2.00;99.90
2611;DHT22;5612;51.134;17.058;2023-02-28T00:07:53;1.90;99.90
2611;DHT22;5612;51.134;17.058;2023-02-28T00:10:24;1.90;99.90
2611;DHT22;5612;51.134;17.058;2023-02-28T00:12:55;2.00;99.90
2611;DHT22;5612;51.134;17.058;2023-02-28T00:15:25;1.90;99.90
2611;DHT22;5612;51.134;17.058;2023-02-28T00:17:55;2.00;99.90
2611;DHT22;5612;51.134;17.058;2023-02-28T00:20:24;2.00;99.90
2611;DHT22;5612;51.134;17.058;2023-02-28T00:22:54;2.00;99.90
2611;DHT22;5612;51.134;17.058;2023-02-28T00:25:24;1.90;99.90
2611;DHT22;5612;51.134;17.058;2023-02-28T00:27:53;2.00;99.90
2611;DHT22;5612;51.134;17.058;2023-02-28T00:30:23;2.10;99.90
2611;DHT22;5612;51.134;17.058;2023-02-28T00:32:52;2.00;99.90
2611;DHT22;5612;51.134;17.058;2023-02-28T00:35:22;2.00;99.90
2611;DHT22;5612;51.134;17.058;2023-02-28T00:37:51;2.10;99.90
2611;DHT22;5612;51.134;17.058;2023-02-28T00:40:20;2.10;99.90
2611;DHT22;5612;51.134;17.058;2023-02-28T00:42:49;2.10;99.90
2611;DHT22;5612;51.134;17.058;2023-02-28T00:45:18;2.10;99.90
2611;DHT22;5612;51.134;17.058;2023-02-28T00:47:47;2.10;99.90
2611;DHT22;5612;51.134;17.058;2023-02-28T00:50:17;2.20;99.90
2611;DHT22;5612;51.134;17.058;2023-02-28T00:52:47;2.10;25.90
2611;DHT22;5612;51.134;17.058;2023-02-28T00:55:16;2.10;39.30
2611;DHT22;5612;51.134;17.058;2023-02-28T00:57:45;2.00;57.70
2611;DHT22;5612;51.134;17.058;2023-02-28T01:00:15;2.10;56.60
2611;DHT22;5612;51.134;17.058;2023-02-28T01:02:44;2.10;58.80
2611;DHT22;5612;51.134;17.058;2023-02-28T01:05:12;1.90;74.30
2611;DHT22;5612;51.134;17.058;2023-02-28T01:07:44;2.00;84.90
2611;DHT22;5612;51.134;17.058;2023-02-28T01:10:15;2.00;92.50
2611;DHT22;5612;51.134;17.058;2023-02-28T01:12:44;2.10;88.40
2611;DHT22;5612;51.134;17.058;2023-02-28T01:15:13;2.10;63.60
2611;DHT22;5612;51.134;17.058;2023-02-28T01:17:42;2.10;56.40
2611;DHT22;5612;51.134;17.058;2023-02-28T01:20:11;2.10;85.60
2611;DHT22;5612;51.134;17.058;2023-02-28T01:22:40;2.10;92.70
2611;DHT22;5612;51.134;17.058;2023-02-28T01:25:09;2.10;99.90
2611;DHT22;5612;51.134;17.058;2023-02-28T01:27:40;2.20;99.90
2611;DHT22;5612;51.134;17.058;2023-02-28T01:30:09;2.10;67.60
2611;DHT22;5612;51.134;17.058;2023-02-28T01:32:39;2.10;57.20
2611;DHT22;5612;51.134;17.058;2023-02-28T01:35:08;2.10;87.70
2611;DHT22;5612;51.134;17.058;2023-02-28T01:37:37;2.00;99.90
2611;DHT22;5612;51.134;17.058;2023-02-28T01:40:07;2.00;99.90
2611;DHT22;5612;51.134;17.058;2023-02-28T01:42:36;1.90;99.90
2611;DHT22;5612;51.134;17.058;2023-02-28T01:45:19;1.90;99.90
2611;DHT22;5612;51.134;17.058;2023-02-28T01:47:53;2.00;99.90
2611;DHT22;5612;51.134;17.058;2023-02-28T01:50:26;2.00;99.90
2611;DHT22;5612;51.134;17.058;2023-02-28T01:53:00;2.00;99.90
2611;DHT22;5612;51.134;17.058;2023-02-28T01:55:30;1.90;99.90
2611;DHT22;5612;51.134;17.058;2023-02-28T01:58:03;1.80;99.90
2611;DHT22;5612;51.134;17.058;2023-02-28T02:00:34;1.90;99.90
2611;DHT22;5612;51.134;17.058;2023-02-28T02:03:08;1.90;99.90
2611;DHT22;5612;51.134;17.058;2023-02-28T02:05:39;2.00;99.90
2611;DHT22;5612;51.134;17.058;2023-02-28T02:08:10;2.00;99.90
2611;DHT22;5612;51.134;17.058;2023-02-28T02:10:44;2.00;99.90
2611;DHT22;5612;51.134;17.058;2023-02-28T02:13:42;2.00;99.90
2611;DHT22;5612;51.134;17.058;2023-02-28T02:16:42;2.10;99.90
2611;DHT22;5612;51.134;17.058;2023-02-28T02:19:43;2.00;99.90
2611;DHT22;5612;51.134;17.058;2023-02-28T02:22:30;1.90;99.90
2611;DHT22;5612;51.134;17.058;2023-02-28T02:25:14;1.70;99.90
2611;DHT22;5612;51.134;17.058;2023-02-28T02:27:58;1.80;99.90
2611;DHT22;5612;51.134;17.058;2023-02-28T02:30:48;1.90;99.90
2611;DHT22;5612;51.134;17.058;2023-02-28T02:33:47;1.90;99.90
2611;DHT22;5612;51.134;17.058;2023-02-28T02:36:21;1.90;99.90
2611;DHT22;5612;51.134;17.058;2023-02-28T02:38:55;2.00;99.90
2611;DHT22;5612;51.134;17.058;2023-02-28T02:41:35;1.90;99.90
2611;DHT22;5612;51.134;17.058;2023-02-28T02:44:10;1.90;99.90
2611;DHT22;5612;51.134;17.058;2023-02-28T02:46:43;1.90;99.90
2611;DHT22;5612;51.134;17.058;2023-02-28T02:49:19;1.90;99.90
2611;DHT22;5612;51.134;17.058;2023-02-28T02:51:51;1.80;99.90
2611;DHT22;5612;51.134;17.058;2023-02-28T02:54:23;1.90;99.90
2611;DHT22;5612;51.134;17.058;2023-02-28T02:56:59;1.90;99.90
2611;DHT22;5612;51.134;17.058;2023-02-28T02:59:30;2.00;99.90
2611;DHT22;5612;51.134;17.058;2023-02-28T03:02:04;1.90;99.90
2611;DHT22;5612;51.134;17.058;2023-02-28T03:04:40;1.80;99.90
2611;DHT22;5612;51.134;17.058;2023-02-28T03:07:12;1.80;99.90
2611;DHT22;5612;51.134;17.058;2023-02-28T03:09:49;1.90;99.90
2611;DHT22;5612;51.134;17.058;2023-02-28T03:12:18;1.90;99.90
2611;DHT22;5612;51.134;17.058;2023-02-28T03:14:56;1.90;99.90
2611;DHT22;5612;51.134;17.058;2023-02-28T03:17:52;1.90;99.90
2611;DHT22;5612;51.134;17.058;2023-02-28T03:20:34;1.90;99.90
2611;DHT22;5612;51.134;17.058;2023-02-28T03:23:13;1.90;99.90
2611;DHT22;5612;51.134;17.058;2023-02-28T03:25:54;1.90;99.90
2611;DHT22;5612;51.134;17.058;2023-02-28T03:28:31;1.90;99.90
2611;DHT22;5612;51.134;17.058;2023-02-28T03:31:03;1.90;99.90
2611;DHT22;5612;51.134;17.058;2023-02-28T03:33:39;2.00;99.90
2611;DHT22;5612;51.134;17.058;2023-02-28T03:36:14;2.00;99.90
2611;DHT22;5612;51.134;17.058;2023-02-28T03:38:54;2.00;99.90
2611;DHT22;5612;51.134;17.058;2023-02-28T03:41:36;2.00;99.90
2611;DHT22;5612;51.134;17.058;2023-02-28T03:44:13;2.00;99.90
2611;DHT22;5612;51.134;17.058;2023-02-28T03:46:52;1.90;99.90
2611;DHT22;5612;51.134;17.058;2023-02-28T03:49:30;1.80;99.90
2611;DHT22;5612;51.134;17.058;2023-02-28T03:52:05;1.80;99.90
2611;DHT22;5612;51.134;17.058;2023-02-28T03:54:40;1.80;99.90
2611;DHT22;5612;51.134;17.058;2023-02-28T03:57:13;1.70;99.90
2611;DHT22;5612;51.134;17.058;2023-02-28T03:59:47;1.70;99.90
2611;DHT22;5612;51.134;17.058;2023-02-28T04:02:16;1.70;99.90
2611;DHT22;5612;51.134;17.058;2023-02-28T04:04:47;1.70;58.40
2611;DHT22;5612;51.134;17.058;2023-02-28T04:07:18;1.60;99.00
2611;DHT22;5612;51.134;17.058;2023-02-28T04:09:48;1.40;99.90
2611;DHT22;5612;51.134;17.058;2023-02-28T04:12:17;1.50;99.90
2611;DHT22;5612;51.134;17.058;2023-02-28T04:14:46;1.50;99.90
2611;DHT22;5612;51.134;17.058;2023-02-28T04:17:15;1.70;99.90
2611;DHT22;5612;51.134;17.058;2023-02-28T04:19:44;1.80;99.90
2611;DHT22;5612;51.134;17.058;2023-02-28T04:22:13;1.70;99.90
2611;DHT22;5612;51.134;17.058;2023-02-28T04:24:42;1.70;99.90
2611;DHT22;5612;51.134;17.058;2023-02-28T04:27:12;1.80;99.90
2611;DHT22;5612;51.134;17.058;2023-02-28T04:29:43;1.80;99.90
2611;DHT22;5612;51.134;17.058;2023-02-28T04:32:12;1.80;99.90
2611;DHT22;5612;51.134;17.058;2023-02-28T04:34:42;1.60;98.40
2611;DHT22;5612;51.134;17.058;2023-02-28T04:37:10;1.70;88.40
2611;DHT22;5612;51.134;17.058;2023-02-28T04:39:42;1.60;6.60
2611;DHT22;5612;51.134;17.058;2023-02-28T04:42:13;1.50;1.00
2611;DHT22;5612;51.134;17.058;2023-02-28T04:44:42;1.50;1.00
2611;DHT22;5612;51.134;17.058;2023-02-28T04:47:11;1.60;3.10
2611;DHT22;5612;51.134;17.058;2023-02-28T04:49:39;1.70;12.00
2611;DHT22;5612;51.134;17.058;2023-02-28T04:52:10;1.70;21.70
2611;DHT22;5612;51.134;17.058;2023-02-28T04:54:40;1.70;27.70
2611;DHT22;5612;51.134;17.058;2023-02-28T04:57:09;1.80;36.70
2611;DHT22;5612;51.134;17.058;2023-02-28T04:59:39;1.70;34.10
2611;DHT22;5612;51.134;17.058;2023-02-28T05:02:08;1.80;52.60
2611;DHT22;5612;51.134;17.058;2023-02-28T05:04:37;1.80;85.20
2611;DHT22;5612;51.134;17.058;2023-02-28T05:07:06;1.90;98.20
2611;DHT22;5612;51.134;17.058;2023-02-28T05:09:35;1.90;99.90
2611;DHT22;5612;51.134;17.058;2023-02-28T05:12:04;1.90;74.70
2611;DHT22;5612;51.134;17.058;2023-02-28T05:14:33;1.90;64.40
2611;DHT22;5612;51.134;17.058;2023-02-28T05:17:03;1.90;59.60
2611;DHT22;5612;51.134;17.058;2023-02-28T05:19:32;1.80;76.90
2611;DHT22;5612;51.134;17.058;2023-02-28T05:22:01;1.70;27.30
2611;DHT22;5612;51.134;17.058;2023-02-28T05:24:30;1.70;5.80
2611;DHT22;5612;51.134;17.058;2023-02-28T05:27:00;1.80;9.30
2611;DHT22;5612;51.134;17.058;2023-02-28T05:29:29;1.90;2.40
2611;DHT22;5612;51.134;17.058;2023-02-28T05:31:57;1.90;1.00
2611;DHT22;5612;51.134;17.058;2023-02-28T05:34:28;1.80;1.00
2611;DHT22;5612;51.134;17.058;2023-02-28T05:36:57;1.90;1.00
2611;DHT22;5612;51.134;17.058;2023-02-28T05:39:25;1.90;1.00
2611;DHT22;5612;51.134;17.058;2023-02-28T05:41:54;1.90;1.00
2611;DHT22;5612;51.134;17.058;2023-02-28T05:44:23;1.80;1.00
2611;DHT22;5612;51.134;17.058;2023-02-28T05:46:52;1.70;1.00
2611;DHT22;5612;51.134;17.058;2023-02-28T05:49:21;1.70;1.00
2611;DHT22;5612;51.134;17.058;2023-02-28T05:51:51;1.80;1.00
2611;DHT22;5612;51.134;17.058;2023-02-28T05:54:20;1.70;1.00
2611;DHT22;5612;51.134;17.058;2023-02-28T05:56:49;1.70;1.00
2611;DHT22;5612;51.134;17.058;2023-02-28T05:59:17;1.70;1.00
2611;DHT22;5612;51.134;17.058;2023-02-28T06:01:47;1.60;1.00
2611;DHT22;5612;51.134;17.058;2023-02-28T06:04:18;1.50;1.00
2611;DHT22;5612;51.134;17.058;2023-02-28T06:07:04;1.70;1.00
2611;DHT22;5612;51.134;17.058;2023-02-28T06:09:33;1.80;1.00
2611;DHT22;5612;51.134;17.058;2023-02-28T06:12:03;1.80;1.00
2611;DHT22;5612;51.134;17.058;2023-02-28T06:14:33;1.90;1.00
2611;DHT22;5612;51.134;17.058;2023-02-28T06:17:03;1.80;1.00
2611;DHT22;5612;51.134;17.058;2023-02-28T06:19:32;2.00;1.00
2611;DHT22;5612;51.134;17.058;2023-02-28T06:22:01;2.10;1.00
2611;DHT22;5612;51.134;17.058;2023-02-28T06:24:31;2.10;1.00
2611;DHT22;5612;51.134;17.058;2023-02-28T06:26:59;2.20;1.00
2611;DHT22;5612;51.134;17.058;2023-02-28T06:29:33;2.40;1.00
2611;DHT22;5612;51.134;17.058;2023-02-28T06:32:02;2.40;1.00
2611;DHT22;5612;51.134;17.058;2023-02-28T06:34:31;2.50;1.00
2611;DHT22;5612;51.134;17.058;2023-02-28T06:37:00;2.50;1.00
2611;DHT22;5612;51.134;17.058;2023-02-28T06:39:31;2.60;1.00
2611;DHT22;5612;51.134;17.058;2023-02-28T06:42:00;2.80;1.00
2611;DHT22;5612;51.134;17.058;2023-02-28T06:44:29;2.70;1.00
2611;DHT22;5612;51.134;17.058;2023-02-28T06:47:03;2.40;1.00
2611;DHT22;5612;51.134;17.058;2023-02-28T06:49:34;2.30;1.00
2611;DHT22;5612;51.134;17.058;2023-02-28T06:52:04;2.30;1.00
2611;DHT22;5612;51.134;17.058;2023-02-28T06:54:39;2.50;1.00
2611;DHT22;5612;51.134;17.058;2023-02-28T06:57:08;2.70;1.00
2611;DHT22;5612;51.134;17.058;2023-02-28T06:59:37;3.00;1.00
2611;DHT22;5612;51.134;17.058;2023-02-28T07:02:05;3.10;1.00
2611;DHT22;5612;51.134;17.058;2023-02-28T07:04:34;3.30;1.00
2611;DHT22;5612;51.134;17.058;2023-02-28T07:07:03;3.50;1.00
2611;DHT22;5612;51.134;17.058;2023-02-28T07:09:32;3.60;1.00
2611;DHT22;5612;51.134;17.058;2023-02-28T07:12:03;3.60;1.00
2611;DHT22;5612;51.134;17.058;2023-02-28T07:14:32;3.50;1.00
2611;DHT22;5612;51.134;17.058;2023-02-28T07:17:01;3.60;1.00
2611;DHT22;5612;51.134;17.058;2023-02-28T07:19:29;3.90;1.00
2611;DHT22;5612;51.134;17.058;2023-02-28T07:21:58;4.20;1.00
2611;DHT22;5612;51.134;17.058;2023-02-28T07:24:29;4.50;1.00
2611;DHT22;5612;51.134;17.058;2023-02-28T07:26:58;5.00;1.00
2611;DHT22;5612;51.134;17.058;2023-02-28T07:29:29;5.50;1.00
2611;DHT22;5612;51.134;17.058;2023-02-28T07:31:59;5.80;1.00
2611;DHT22;5612;51.134;17.058;2023-02-28T07:34:28;6.20;1.00
2611;DHT22;5612;51.134;17.058;2023-02-28T07:36:57;7.00;1.00
2611;DHT22;5612;51.134;17.058;2023-02-28T07:39:26;7.50;1.00
2611;DHT22;5612;51.134;17.058;2023-02-28T07:41:55;8.20;1.00
2611;DHT22;5612;51.134;17.058;2023-02-28T07:44:24;9.20;1.00
2611;DHT22;5612;51.134;17.058;2023-02-28T07:46:54;9.80;1.00
2611;DHT22;5612;51.134;17.058;2023-02-28T07:49:23;10.40;1.00
2611;DHT22;5612;51.134;17.058;2023-02-28T07:51:52;11.30;1.00
2611;DHT22;5612;51.134;17.058;2023-02-28T07:54:21;11.50;1.00
2611;DHT22;5612;51.134;17.058;2023-02-28T07:56:50;12.10;1.00
2611;DHT22;5612;51.134;17.058;2023-02-28T07:59:19;12.60;1.00
2611;DHT22;5612;51.134;17.058;2023-02-28T08:01:47;13.10;1.00
2611;DHT22;5612;51.134;17.058;2023-02-28T08:04:19;13.10;1.00
2611;DHT22;5612;51.134;17.058;2023-02-28T08:06:48;13.40;1.00
2611;DHT22;5612;51.134;17.058;2023-02-28T08:09:19;13.50;1.00
2611;DHT22;5612;51.134;17.058;2023-02-28T08:11:48;13.70;1.00
2611;DHT22;5612;51.134;17.058;2023-02-28T08:14:17;13.80;1.00
2611;DHT22;5612;51.134;17.058;2023-02-28T08:16:47;14.40;1.00
2611;DHT22;5612;51.134;17.058;2023-02-28T08:19:17;14.20;1.00
2611;DHT22;5612;51.134;17.058;2023-02-28T08:21:46;14.80;1.00
2611;DHT22;5612;51.134;17.058;2023-02-28T08:24:15;15.70;1.00
2611;DHT22;5612;51.134;17.058;2023-02-28T08:26:44;15.80;1.00
2611;DHT22;5612;51.134;17.058;2023-02-28T08:29:13;15.90;1.00
2611;DHT22;5612;51.134;17.058;2023-02-28T08:31:42;15.90;1.00
2611;DHT22;5612;51.134;17.058;2023-02-28T08:34:14;16.40;1.00
2611;DHT22;5612;51.134;17.058;2023-02-28T08:36:45;16.60;1.00
2611;DHT22;5612;51.134;17.058;2023-02-28T08:39:14;17.20;1.00
2611;DHT22;5612;51.134;17.058;2023-02-28T08:41:43;17.30;1.00
2611;DHT22;5612;51.134;17.058;2023-02-28T08:44:17;17.40;1.00
2611;DHT22;5612;51.134;17.058;2023-02-28T08:46:46;17.60;1.00
2611;DHT22;5612;51.134;17.058;2023-02-28T08:49:14;17.40;1.00
2611;DHT22;5612;51.134;17.058;2023-02-28T08:51:45;17.80;1.00
2611;DHT22;5612;51.134;17.058;2023-02-28T08:54:14;18.10;1.00
2611;DHT22;5612;51.134;17.058;2023-02-28T08:56:46;17.90;1.00
2611;DHT22;5612;51.134;17.058;2023-02-28T08:59:15;18.60;1.00
2611;DHT22;5612;51.134;17.058;2023-02-28T09:01:45;19.20;1.00
2611;DHT22;5612;51.134;17.058;2023-02-28T09:04:14;19.00;1.00
2611;DHT22;5612;51.134;17.058;2023-02-28T09:06:48;18.40;1.00
2611;DHT22;5612;51.134;17.058;2023-02-28T09:09:17;18.00;1.00
2611;DHT22;5612;51.134;17.058;2023-02-28T09:11:46;18.80;1.00
2611;DHT22;5612;51.134;17.058;2023-02-28T09:14:15;19.10;1.00
2611;DHT22;5612;51.134;17.058;2023-02-28T09:16:44;19.70;1.00
2611;DHT22;5612;51.134;17.058;2023-02-28T09:19:13;20.40;1.00
2611;DHT22;5612;51.134;17.058;2023-02-28T09:21:42;20.20;1.00
2611;DHT22;5612;51.134;17.058;2023-02-28T09:24:12;20.60;1.00
2611;DHT22;5612;51.134;17.058;2023-02-28T09:26:44;21.30;1.00
2611;DHT22;5612;51.134;17.058;2023-02-28T09:29:30;21.20;1.00
2611;DHT22;5612;51.134;17.058;2023-02-28T09:32:00;21.90;1.00
2611;DHT22;5612;51.134;17.058;2023-02-28T09:34:29;21.80;1.00
2611;DHT22;5612;51.134;17.058;2023-02-28T09:36:58;21.10;1.00
2611;DHT22;5612;51.134;17.058;2023-02-28T09:39:29;22.50;1.00
2611;DHT22;5612;51.134;17.058;2023-02-28T09:41:58;22.10;1.00
2611;DHT22;5612;51.134;17.058;2023-02-28T09:44:31;22.30;1.00
2611;DHT22;5612;51.134;17.058;2023-02-28T09:47:04;22.40;1.00
2611;DHT22;5612;51.134;17.058;2023-02-28T09:49:40;21.90;1.00
2611;DHT22;5612;51.134;17.058;2023-02-28T09:52:12;20.30;1.00
2611;DHT22;5612;51.134;17.058;2023-02-28T09:54:43;20.50;1.00
2611;DHT22;5612;51.134;17.058;2023-02-28T09:57:19;19.50;1.00
2611;DHT22;5612;51.134;17.058;2023-02-28T10:00:07;18.60;1.00
2611;DHT22;5612;51.134;17.058;2023-02-28T10:02:54;19.40;1.00
2611;DHT22;5612;51.134;17.058;2023-02-28T10:05:28;18.70;1.00
2611;DHT22;5612;51.134;17.058;2023-02-28T10:08:09;19.20;1.00
2611;DHT22;5612;51.134;17.058;2023-02-28T10:10:43;19.90;1.00
2611;DHT22;5612;51.134;17.058;2023-02-28T10:13:17;20.80;1.00
2611;DHT22;5612;51.134;17.058;2023-02-28T10:15:52;21.20;1.00
2611;DHT22;5612;51.134;17.058;2023-02-28T10:18:26;21.40;1.00
2611;DHT22;5612;51.134;17.058;2023-02-28T10:20:56;21.60;1.00
2611;DHT22;5612;51.134;17.058;2023-02-28T10:23:27;22.50;1.00
2611;DHT22;5612;51.134;17.058;2023-02-28T10:26:00;22.20;1.00
2611;DHT22;5612;51.134;17.058;2023-02-28T10:28:30;22.30;1.00
2611;DHT22;5612;51.134;17.058;2023-02-28T10:30:59;22.10;1.00
2611;DHT22;5612;51.134;17.058;2023-02-28T10:33:30;23.50;1.00
2611;DHT22;5612;51.134;17.058;2023-02-28T10:36:01;24.70;1.00
2611;DHT22;5612;51.134;17.058;2023-02-28T10:38:34;24.30;1.00
2611;DHT22;5612;51.134;17.058;2023-02-28T10:41:07;24.40;1.00
2611;DHT22;5612;51.134;17.058;2023-02-28T10:43:36;24.30;1.00
2611;DHT22;5612;51.134;17.058;2023-02-28T10:46:13;23.70;1.00
2611;DHT22;5612;51.134;17.058;2023-02-28T10:49:00;23.70;1.00
2611;DHT22;5612;51.134;17.058;2023-02-28T10:51:36;24.00;1.00
2611;DHT22;5612;51.134;17.058;2023-02-28T10:54:06;23.60;1.00
2611;DHT22;5612;51.134;17.058;2023-02-28T10:56:44;23.20;1.00
2611;DHT22;5612;51.134;17.058;2023-02-28T10:59:28;24.20;1.00
2611;DHT22;5612;51.134;17.058;2023-02-28T11:01:57;25.20;1.00
2611;DHT22;5612;51.134;17.058;2023-02-28T11:04:34;25.20;1.00
2611;DHT22;5612;51.134;17.058;2023-02-28T11:07:18;24.50;1.00
2611;DHT22;5612;51.134;17.058;2023-02-28T11:09:53;25.00;1.00
2611;DHT22;5612;51.134;17.058;2023-02-28T11:12:27;24.60;1.00
2611;DHT22;5612;51.134;17.058;2023-02-28T11:15:02;24.90;1.00
2611;DHT22;5612;51.134;17.058;2023-02-28T11:17:33;23.80;1.00
2611;DHT22;5612;51.134;17.058;2023-02-28T11:20:05;23.80;1.00
2611;DHT22;5612;51.134;17.058;2023-02-28T11:22:37;24.50;1.00
2611;DHT22;5612;51.134;17.058;2023-02-28T11:25:12;23.90;1.00
2611;DHT22;5612;51.134;17.058;2023-02-28T11:27:49;24.60;1.00
2611;DHT22;5612;51.134;17.058;2023-02-28T11:30:29;23.90;1.00
2611;DHT22;5612;51.134;17.058;2023-02-28T11:32:58;24.00;1.00
2611;DHT22;5612;51.134;17.058;2023-02-28T11:35:31;24.30;1.00
2611;DHT22;5612;51.134;17.058;2023-02-28T11:38:04;24.90;1.00
2611;DHT22;5612;51.134;17.058;2023-02-28T11:40:42;25.20;1.00
2611;DHT22;5612;51.134;17.058;2023-02-28T11:43:25;24.70;1.00
2611;DHT22;5612;51.134;17.058;2023-02-28T11:46:06;23.20;1.00
2611;DHT22;5612;51.134;17.058;2023-02-28T11:48:45;23.50;1.00
2611;DHT22;5612;51.134;17.058;2023-02-28T11:51:21;23.40;1.00
2611;DHT22;5612;51.134;17.058;2023-02-28T11:57:18;24.90;1.00
2611;DHT22;5612;51.134;17.058;2023-02-28T11:59:59;25.00;1.00
2611;DHT22;5612;51.134;17.058;2023-02-28T12:02:36;25.00;1.00
2611;DHT22;5612;51.134;17.058;2023-02-28T12:05:24;24.40;1.00
2611;DHT22;5612;51.134;17.058;2023-02-28T12:08:06;24.20;1.00
2611;DHT22;5612;51.134;17.058;2023-02-28T12:10:44;23.00;1.00
2611;DHT22;5612;51.134;17.058;2023-02-28T12:13:26;23.20;1.00
2611;DHT22;5612;51.134;17.058;2023-02-28T12:16:16;23.40;1.00
2611;DHT22;5612;51.134;17.058;2023-02-28T12:18:57;24.00;1.00
2611;DHT22;5612;51.134;17.058;2023-02-28T12:21:41;23.10;1.00
2611;DHT22;5612;51.134;17.058;2023-02-28T12:27:18;21.90;1.00
2611;DHT22;5612;51.134;17.058;2023-02-28T12:29:51;22.20;1.00
2611;DHT22;5612;51.134;17.058;2023-02-28T12:32:27;22.30;1.00
2611;DHT22;5612;51.134;17.058;2023-02-28T12:35:02;22.20;1.00
2611;DHT22;5612;51.134;17.058;2023-02-28T12:37:36;22.10;1.00
2611;DHT22;5612;51.134;17.058;2023-02-28T12:40:12;21.90;1.00
2611;DHT22;5612;51.134;17.058;2023-02-28T12:42:44;21.70;1.00
2611;DHT22;5612;51.134;17.058;2023-02-28T12:45:18;22.00;1.00
2611;DHT22;5612;51.134;17.058;2023-02-28T12:47:55;21.40;1.00
2611;DHT22;5612;51.134;17.058;2023-02-28T12:50:27;21.10;1.00
2611;DHT22;5612;51.134;17.058;2023-02-28T12:53:02;21.10;1.00
2611;DHT22;5612;51.134;17.058;2023-02-28T12:55:38;20.60;1.00
2611;DHT22;5612;51.134;17.058;2023-02-28T12:58:13;20.00;1.00
2611;DHT22;5612;51.134;17.058;2023-02-28T13:00:55;20.20;1.00
2611;DHT22;5612;51.134;17.058;2023-02-28T13:03:49;19.90;1.00
2611;DHT22;5612;51.134;17.058;2023-02-28T13:06:34;20.40;1.00
2611;DHT22;5612;51.134;17.058;2023-02-28T13:09:08;19.90;1.00
2611;DHT22;5612;51.134;17.058;2023-02-28T13:11:43;19.50;1.00
2611;DHT22;5612;51.134;17.058;2023-02-28T13:14:25;18.70;1.00
2611;DHT22;5612;51.134;17.058;2023-02-28T13:16:58;18.80;1.00
2611;DHT22;5612;51.134;17.058;2023-02-28T13:19:31;19.00;1.00
2611;DHT22;5612;51.134;17.058;2023-02-28T13:22:01;19.10;1.00
2611;DHT22;5612;51.134;17.058;2023-02-28T13:24:40;20.10;1.00
2611;DHT22;5612;51.134;17.058;2023-02-28T13:27:34;21.00;1.00
2611;DHT22;5612;51.134;17.058;2023-02-28T13:33:23;19.80;1.00
2611;DHT22;5612;51.134;17.058;2023-02-28T13:36:25;19.90;1.00
2611;DHT22;5612;51.134;17.058;2023-02-28T13:38:57;21.00;1.00
2611;DHT22;5612;51.134;17.058;2023-02-28T13:41:43;21.10;1.00
2611;DHT22;5612;51.134;17.058;2023-02-28T13:44:13;21.10;1.00
2611;DHT22;5612;51.134;17.058;2023-02-28T13:49:51;20.60;1.00
2611;DHT22;5612;51.134;17.058;2023-02-28T13:52:25;20.10;1.00
2611;DHT22;5612;51.134;17.058;2023-02-28T13:55:19;20.10;1.00
2611;DHT22;5612;51.134;17.058;2023-02-28T13:58:03;20.90;1.00
2611;DHT22;5612;51.134;17.058;2023-02-28T14:00:45;21.40;1.00
2611;DHT22;5612;51.134;17.058;2023-02-28T14:03:31;20.40;1.00
2611;DHT22;5612;51.134;17.058;2023-02-28T14:06:16;19.70;1.00
2611;DHT22;5612;51.134;17.058;2023-02-28T14:08:54;19.50;1.00
2611;DHT22;5612;51.134;17.058;2023-02-28T14:11:29;19.20;1.00
2611;DHT22;5612;51.134;17.058;2023-02-28T14:13:59;18.10;1.00
2611;DHT22;5612;51.134;17.058;2023-02-28T14:16:36;17.70;1.00
2611;DHT22;5612;51.134;17.058;2023-02-28T14:19:12;17.60;1.00
2611;DHT22;5612;51.134;17.058;2023-02-28T14:21:56;17.30;1.00
2611;DHT22;5612;51.134;17.058;2023-02-28T14:24:49;17.70;1.00
2611;DHT22;5612;51.134;17.058;2023-02-28T14:27:37;17.90;1.00
2611;DHT22;5612;51.134;17.058;2023-02-28T14:30:36;18.30;1.00
2611;DHT22;5612;51.134;17.058;2023-02-28T14:33:22;18.20;1.00
2611;DHT22;5612;51.134;17.058;2023-02-28T14:36:04;19.00;1.00
2611;DHT22;5612;51.134;17.058;2023-02-28T14:38:41;18.80;1.00
2611;DHT22;5612;51.134;17.058;2023-02-28T14:41:22;18.90;1.00
2611;DHT22;5612;51.134;17.058;2023-02-28T14:43:54;18.90;1.00
2611;DHT22;5612;51.134;17.058;2023-02-28T14:46:26;18.10;1.00
2611;DHT22;5612;51.134;17.058;2023-02-28T14:48:57;18.70;1.00
2611;DHT22;5612;51.134;17.058;2023-02-28T14:51:27;18.90;1.00
2611;DHT22;5612;51.134;17.058;2023-02-28T14:53:58;18.60;1.00
2611;DHT22;5612;51.134;17.058;2023-02-28T14:56:35;18.70;1.00
2611;DHT22;5612;51.134;17.058;2023-02-28T14:59:21;18.30;1.00
2611;DHT22;5612;51.134;17.058;2023-02-28T15:02:18;18.40;1.00
2611;DHT22;5612;51.134;17.058;2023-02-28T15:04:54;18.50;1.00
2611;DHT22;5612;51.134;17.058;2023-02-28T15:07:26;18.80;1.00
2611;DHT22;5612;51.134;17.058;2023-02-28T15:10:25;18.10;1.00
2611;DHT22;5612;51.134;17.058;2023-02-28T15:12:58;17.40;1.00
2611;DHT22;5612;51.134;17.058;2023-02-28T15:15:40;17.60;1.00
2611;DHT22;5612;51.134;17.058;2023-02-28T15:18:36;17.30;1.00
2611;DHT22;5612;51.134;17.058;2023-02-28T15:21:07;16.60;1.00
2611;DHT22;5612;51.134;17.058;2023-02-28T15:23:39;15.80;1.00
2611;DHT22;5612;51.134;17.058;2023-02-28T15:26:14;15.50;1.00
2611;DHT22;5612;51.134;17.058;2023-02-28T15:28:45;15.20;1.00
2611;DHT22;5612;51.134;17.058;2023-02-28T15:31:23;15.50;1.00
2611;DHT22;5612;51.134;17.058;2023-02-28T15:34:06;14.90;1.00
2611;DHT22;5612;51.134;17.058;2023-02-28T15:36:42;14.70;1.00
2611;DHT22;5612;51.134;17.058;2023-02-28T15:39:21;14.80;1.00
2611;DHT22;5612;51.134;17.058;2023-02-28T15:41:50;14.90;1.00
2611;DHT22;5612;51.134;17.058;2023-02-28T15:44:29;14.70;1.00
2611;DHT22;5612;51.134;17.058;2023-02-28T15:47:06;14.50;1.00
2611;DHT22;5612;51.134;17.058;2023-02-28T15:49:45;13.30;1.00
2611;DHT22;5612;51.134;17.058;2023-02-28T15:52:18;12.50;1.00
2611;DHT22;5612;51.134;17.058;2023-02-28T15:54:49;12.30;1.00
2611;DHT22;5612;51.134;17.058;2023-02-28T15:57:21;12.20;1.00
2611;DHT22;5612;51.134;17.058;2023-02-28T15:59:55;11.00;1.00
2611;DHT22;5612;51.134;17.058;2023-02-28T16:02:32;10.90;1.00
2611;DHT22;5612;51.134;17.058;2023-02-28T16:05:23;10.70;1.00
2611;DHT22;5612;51.134;17.058;2023-02-28T16:07:59;10.80;1.00
2611;DHT22;5612;51.134;17.058;2023-02-28T16:10:30;9.80;1.00
2611;DHT22;5612;51.134;17.058;2023-02-28T16:13:02;9.30;1.00
2611;DHT22;5612;51.134;17.058;2023-02-28T16:15:38;9.40;1.00
2611;DHT22;5612;51.134;17.058;2023-02-28T16:18:11;8.40;1.00
2611;DHT22;5612;51.134;17.058;2023-02-28T16:20:42;8.10;1.00
2611;DHT22;5612;51.134;17.058;2023-02-28T16:23:14;7.80;1.00
2611;DHT22;5612;51.134;17.058;2023-02-28T16:25:44;7.80;1.00
2611;DHT22;5612;51.134;17.058;2023-02-28T16:28:19;7.00;1.00
2611;DHT22;5612;51.134;17.058;2023-02-28T16:30:53;6.70;1.00
2611;DHT22;5612;51.134;17.058;2023-02-28T16:33:26;6.50;1.00
2611;DHT22;5612;51.134;17.058;2023-02-28T16:35:55;6.20;1.00
2611;DHT22;5612;51.134;17.058;2023-02-28T16:38:25;6.10;1.00
2611;DHT22;5612;51.134;17.058;2023-02-28T16:40:57;6.20;1.00
2611;DHT22;5612;51.134;17.058;2023-02-28T16:43:28;6.30;1.00
2611;DHT22;5612;51.134;17.058;2023-02-28T16:45:59;5.90;1.00
2611;DHT22;5612;51.134;17.058;2023-02-28T16:48:28;5.90;1.00
2611;DHT22;5612;51.134;17.058;2023-02-28T16:50:59;6.10;1.00
2611;DHT22;5612;51.134;17.058;2023-02-28T16:53:28;6.00;1.00
2611;DHT22;5612;51.134;17.058;2023-02-28T16:55:57;5.90;1.00
2611;DHT22;5612;51.134;17.058;2023-02-28T16:58:26;5.90;1.00